»·PEaware :: PSV316 KHQM-S23

PSV316 :: KHQM-S23

FLIGHT INFORMATION

Flight Status: Arrived
Operator:
Power Set Virtual (website)
More flights by this operator :: More flights under this callsign
Pilot: Chad L. (27474)
Aircraft: CESSNA 510 CITATION MUSTANG
(C510)
More flights by this aircraft type
Origin: KHQM Bowerman
United States
Destination: S23 Ione Mun
United States
More flights between these airports :: More routes between these airports
Route: FALDA METOW
File this flight plan on PilotEdge
Remarks:
Altitude:
(Current/Filed)
37,000ft
Speed:
(Current/Filed)
350kts
Departed: 03-May-20 10:39 AM
Arrived: 03-May-20 11:36 AM
Distance/Time
Traveled:
282nm/0:57
Distance/Time
To Go:
Arrived

Flight Plot

Page will automatically refresh every two minutes.

Flight plan parsing failed; only flown route is shown


Map Options




Map Legend


Flown Route
Filed Route
Departure Airport
Arrival Airport
Navaid (VOR, NDB)
Fix

Horizontal Profiles

Position Reports

Time Latitude Longitude Heading Altitude Ground
Speed
03-May-20 10:31 46.973253 -123.930585 53 18ft 0kts
03-May-20 10:32 46.973253 -123.930585 53 18ft 0kts
03-May-20 10:33 46.973253 -123.930585 53 18ft 0kts
03-May-20 10:34 46.973253 -123.930585 53 18ft 0kts
03-May-20 10:35 46.973253 -123.930585 53 18ft 0kts
03-May-20 10:36 46.973162 -123.929152 83 18ft 11kts
03-May-20 10:37 46.972335 -123.927323 254 18ft 0kts
03-May-20 10:38 46.970828 -123.939465 258 53ft 119kts
03-May-20 10:39 46.966441 -123.992962 258 3465ft 138kts
03-May-20 10:41 46.970391 -124.045793 331 6878ft 155kts
03-May-20 10:42 46.994850 -124.003661 69 9937ft 174kts
03-May-20 10:43 47.011970 -123.936533 69 12812ft 185kts
03-May-20 10:44 47.029978 -123.865769 68 15490ft 195kts
03-May-20 10:45 47.049555 -123.789589 67 18054ft 206kts
03-May-20 10:46 47.070321 -123.709308 66 20481ft 216kts
03-May-20 10:47 47.091917 -123.625244 66 22725ft 227kts
03-May-20 10:48 47.114058 -123.538811 66 24806ft 236kts
03-May-20 10:49 47.137504 -123.447462 67 26817ft 244kts
03-May-20 10:50 47.161150 -123.354426 67 28672ft 251kts
03-May-20 10:51 47.186043 -123.255968 68 30404ft 259kts
03-May-20 10:52 47.215177 -123.158390 63 32003ft 266kts
03-May-20 10:53 47.247462 -123.059044 65 33522ft 273kts
03-May-20 10:54 47.280364 -122.956743 66 34937ft 280kts
03-May-20 10:55 47.313897 -122.851911 66 36276ft 286kts
03-May-20 10:56 47.348102 -122.744592 65 37338ft 299kts
03-May-20 10:57 47.386488 -122.623464 65 37334ft 350kts
03-May-20 10:57 47.422666 -122.509195 65 37327ft 382kts
03-May-20 10:59 47.476656 -122.337686 66 37315ft 412kts
03-May-20 11:00 47.525692 -122.180897 66 37313ft 426kts
03-May-20 11:00 47.567301 -122.047034 66 37312ft 433kts
03-May-20 11:01 47.617790 -121.883613 66 37312ft 439kts
03-May-20 11:02 47.668650 -121.717880 66 37313ft 442kts
03-May-20 11:03 47.719374 -121.551634 66 37312ft 443kts
03-May-20 11:04 47.770030 -121.384313 66 37305ft 444kts
03-May-20 11:05 47.819797 -121.218867 67 37292ft 445kts
03-May-20 11:06 47.870218 -121.050184 67 37250ft 446kts
03-May-20 11:07 47.920456 -120.880950 67 37203ft 447kts
03-May-20 11:08 47.970391 -120.711567 67 37205ft 446kts
03-May-20 11:09 48.020202 -120.541581 67 37178ft 445kts
03-May-20 11:10 48.069554 -120.371558 67 37178ft 444kts
03-May-20 11:11 48.114505 -120.215750 68 37169ft 444kts
03-May-20 11:12 48.157499 -120.042734 73 37164ft 442kts
03-May-20 11:13 48.196396 -119.867553 73 37163ft 442kts
03-May-20 11:14 48.233570 -119.699155 73 34913ft 408kts
03-May-20 11:15 48.267697 -119.542522 73 31908ft 387kts
03-May-20 11:16 48.300103 -119.393099 72 28912ft 371kts
03-May-20 11:17 48.329544 -119.257129 73 25816ft 364kts
03-May-20 11:18 48.360376 -119.113157 73 22300ft 362kts
03-May-20 11:19 48.391185 -118.968401 73 18758ft 356kts
03-May-20 11:20 48.421053 -118.826513 72 15117ft 334kts
03-May-20 11:21 48.449221 -118.691908 71 12002ft 302kts
03-May-20 11:22 48.471858 -118.584113 71 12011ft 239kts
03-May-20 11:23 48.494830 -118.474548 72 9482ft 299kts
03-May-20 11:24 48.518713 -118.358684 72 9015ft 296kts
03-May-20 11:25 48.542226 -118.243858 73 9012ft 295kts
03-May-20 11:26 48.566051 -118.126591 73 9006ft 296kts
03-May-20 11:27 48.590455 -118.006126 72 9006ft 297kts
03-May-20 11:28 48.614925 -117.885019 73 8219ft 283kts
03-May-20 11:29 48.636608 -117.776238 73 7482ft 261kts
03-May-20 11:30 48.657455 -117.671771 73 7488ft 266kts
03-May-20 11:31 48.679611 -117.559922 73 7491ft 285kts
03-May-20 11:32 48.701427 -117.448925 73 5144ft 247kts
03-May-20 11:33 48.730971 -117.399178 345 3669ft 142kts
03-May-20 11:34 48.731860 -117.420848 180 2489ft 120kts
03-May-20 11:35 48.703690 -117.411483 165 2109ft 19kts
03-May-20 11:36 48.702373 -117.411067 170 2107ft 0kts

Navigation Log

Ident Type
Flight plan parsing failed, navigation log unavailable